createdAt,value
2019-03-18T00:01:33.845Z,8.03
2019-03-18T00:04:01.123Z,7.75
2019-03-18T00:06:28.431Z,7.55
2019-03-18T00:08:55.794Z,8.18
2019-03-18T00:11:23.059Z,7.22
2019-03-18T00:13:50.332Z,6.50
2019-03-18T00:16:17.638Z,7.80
2019-03-18T00:18:44.982Z,7.45
2019-03-18T00:21:12.257Z,6.58
2019-03-18T00:23:39.529Z,6.55
2019-03-18T00:26:06.864Z,6.62
2019-03-18T00:28:34.515Z,7.70
2019-03-18T00:31:01.871Z,7.28
2019-03-18T00:33:29.229Z,6.62
2019-03-18T00:35:56.630Z,6.45
2019-03-18T00:38:23.932Z,6.92
2019-03-18T00:40:51.214Z,7.08
2019-03-18T00:43:18.495Z,7.70
2019-03-18T00:45:45.773Z,6.10
2019-03-18T00:48:13.051Z,6.25
2019-03-18T00:50:40.334Z,6.22
2019-03-18T00:53:07.696Z,6.75
2019-03-18T00:55:34.984Z,6.03
2019-03-18T00:58:02.303Z,7.33
2019-03-18T01:00:29.725Z,6.28
2019-03-18T01:02:57.390Z,6.42
2019-03-18T01:05:24.748Z,7.08
2019-03-18T01:07:52.033Z,6.75
2019-03-18T01:10:19.435Z,6.37
2019-03-18T01:12:47.728Z,5.60
2019-03-18T01:15:27.440Z,5.92
2019-03-18T01:17:44.109Z,6.42
2019-03-18T01:20:12.986Z,6.08
2019-03-18T01:22:40.273Z,6.42
2019-03-18T01:25:08.463Z,6.12
2019-03-18T01:27:35.816Z,5.55
2019-03-18T01:30:03.378Z,5.33
2019-03-18T01:32:30.764Z,6.25
2019-03-18T01:34:58.104Z,4.60
2019-03-18T01:37:25.391Z,5.15
2019-03-18T01:39:52.748Z,5.53
2019-03-18T01:42:20.067Z,4.83
2019-03-18T01:44:47.354Z,5.03
2019-03-18T01:47:14.700Z,4.92
2019-03-18T01:49:42.011Z,5.62
2019-03-18T01:52:09.369Z,4.85
2019-03-18T01:54:39.744Z,5.67
2019-03-18T01:57:07.046Z,5.35
2019-03-18T01:59:34.331Z,4.33
2019-03-18T02:02:01.699Z,4.03
2019-03-18T02:04:29.043Z,3.92
2019-03-18T02:06:56.791Z,4.47
2019-03-18T02:09:24.069Z,5.60
2019-03-18T02:11:51.346Z,4.85
2019-03-18T02:14:18.898Z,4.42
2019-03-18T02:16:46.210Z,5.53
2019-03-18T02:19:13.533Z,4.30
2019-03-18T02:21:40.819Z,4.62
2019-03-18T02:24:08.105Z,4.62
2019-03-18T02:26:35.404Z,5.35
2019-03-18T02:29:02.682Z,4.67
2019-03-18T02:31:29.968Z,4.87
2019-03-18T02:33:57.340Z,4.03
2019-03-18T02:36:24.694Z,5.20
2019-03-18T02:38:52.055Z,4.83
2019-03-18T02:41:19.334Z,4.25
2019-03-18T02:43:46.628Z,4.55
2019-03-18T02:46:14.058Z,4.65
2019-03-18T02:48:41.413Z,4.42
2019-03-18T02:51:08.699Z,4.78
2019-03-18T02:53:35.992Z,3.70
2019-03-18T02:56:03.555Z,3.58
2019-03-18T02:58:30.896Z,4.10
2019-03-18T03:00:58.170Z,3.87
2019-03-18T03:03:25.479Z,3.95
2019-03-18T03:05:52.839Z,4.22
2019-03-18T03:08:20.107Z,3.05
2019-03-18T03:10:47.394Z,3.85
2019-03-18T03:13:14.728Z,3.65
2019-03-18T03:15:42.061Z,3.47
2019-03-18T03:18:09.409Z,4.47
2019-03-18T03:20:36.903Z,3.42
2019-03-18T03:23:04.257Z,5.50
2019-03-18T03:25:31.796Z,4.97
2019-03-18T03:27:59.089Z,5.03
2019-03-18T03:30:26.547Z,3.90
2019-03-18T03:32:53.929Z,3.98
2019-03-18T03:35:21.283Z,3.90
2019-03-18T03:37:48.653Z,4.53
2019-03-18T03:40:15.917Z,3.33
2019-03-18T03:42:43.264Z,3.47
2019-03-18T03:45:11.321Z,4.12
2019-03-18T03:47:38.682Z,3.37
2019-03-18T03:50:07.553Z,3.20
2019-03-18T03:52:34.828Z,3.65
2019-03-18T03:55:02.184Z,3.50
2019-03-18T03:57:29.578Z,3.15
2019-03-18T03:59:57.469Z,2.87
2019-03-18T04:02:25.087Z,3.30
2019-03-18T04:04:52.449Z,3.85
2019-03-18T04:07:19.798Z,3.17
2019-03-18T04:09:47.079Z,3.55
2019-03-18T04:12:14.425Z,3.15
2019-03-18T04:14:41.718Z,3.10
2019-03-18T04:17:09.085Z,4.08
2019-03-18T04:19:36.466Z,3.02
2019-03-18T04:22:03.764Z,3.30
2019-03-18T04:24:31.102Z,3.35
2019-03-18T04:26:58.378Z,3.42
2019-03-18T04:29:25.660Z,3.27
2019-03-18T04:31:53.031Z,3.30
2019-03-18T04:34:20.314Z,2.90
2019-03-18T04:36:47.596Z,3.83
2019-03-18T04:39:14.959Z,3.50
2019-03-18T04:41:42.249Z,3.77
2019-03-18T04:44:09.595Z,2.65
2019-03-18T04:46:36.862Z,2.70
2019-03-18T04:49:04.147Z,2.65
2019-03-18T04:51:31.528Z,2.70
2019-03-18T04:53:59.280Z,3.30
2019-03-18T04:56:26.841Z,2.55
2019-03-18T04:58:54.133Z,2.70
2019-03-18T05:01:21.497Z,2.52
2019-03-18T05:03:48.836Z,2.92
2019-03-18T05:06:16.195Z,3.00
2019-03-18T05:08:43.473Z,2.52
2019-03-18T05:11:10.760Z,3.27
2019-03-18T05:13:38.061Z,3.42
2019-03-18T05:16:05.411Z,3.20
2019-03-18T05:18:32.852Z,2.55
2019-03-18T05:21:00.251Z,3.12
2019-03-18T05:23:27.539Z,3.37
2019-03-18T05:25:54.827Z,3.55
2019-03-18T05:28:22.111Z,3.50
2019-03-18T05:30:49.469Z,2.90
2019-03-18T05:33:16.829Z,2.67
2019-03-18T05:35:44.104Z,2.90
2019-03-18T05:38:11.516Z,2.30
2019-03-18T05:40:38.825Z,3.22
2019-03-18T05:43:06.179Z,2.77
2019-03-18T05:45:33.872Z,3.45
2019-03-18T05:48:01.309Z,3.00
2019-03-18T05:50:28.581Z,3.47
2019-03-18T05:52:55.915Z,2.87
2019-03-18T05:55:23.219Z,3.05
2019-03-18T05:57:50.489Z,2.95
2019-03-18T06:00:17.778Z,3.02
2019-03-18T06:02:46.987Z,4.20
2019-03-18T06:05:14.258Z,3.02
2019-03-18T06:07:41.620Z,2.92
2019-03-18T06:10:09.922Z,3.45
2019-03-18T06:12:37.294Z,3.30
2019-03-18T06:15:06.039Z,5.33
2019-03-18T06:17:33.326Z,3.05
2019-03-18T06:20:00.687Z,3.85
2019-03-18T06:22:28.292Z,2.77
2019-03-18T06:24:55.572Z,3.92
2019-03-18T06:27:22.889Z,6.72
2019-03-18T06:29:50.244Z,3.37
2019-03-18T06:32:17.591Z,4.15
2019-03-18T06:34:45.177Z,3.52
2019-03-18T06:37:12.462Z,4.17
2019-03-18T06:39:39.747Z,9.63
2019-03-18T06:42:07.123Z,26.05
2019-03-18T06:44:34.479Z,113.00
2019-03-18T06:47:01.757Z,181.87
2019-03-18T06:49:29.054Z,155.85
2019-03-18T06:51:56.343Z,138.85
2019-03-18T06:54:23.724Z,86.30
2019-03-18T06:56:51.009Z,59.70
2019-03-18T06:59:18.286Z,48.83
2019-03-18T07:01:45.584Z,32.13
2019-03-18T07:04:13.140Z,40.63
2019-03-18T07:06:40.436Z,35.23
2019-03-18T07:09:07.750Z,32.05
2019-03-18T07:11:35.042Z,25.30
2019-03-18T07:14:02.507Z,23.70
2019-03-18T07:16:29.863Z,20.00
2019-03-18T07:18:57.170Z,17.52
2019-03-18T07:21:24.445Z,16.57
2019-03-18T07:23:51.733Z,14.90
2019-03-18T07:26:19.019Z,15.25
2019-03-18T07:28:46.389Z,14.13
2019-03-18T07:31:13.679Z,14.35
2019-03-18T07:33:40.958Z,11.65
2019-03-18T07:36:08.256Z,11.55
2019-03-18T07:38:35.614Z,11.05
2019-03-18T07:41:02.885Z,12.15
2019-03-18T07:43:30.192Z,11.15
2019-03-18T07:45:57.546Z,10.70
2019-03-18T07:48:31.069Z,10.88
2019-03-18T07:50:53.931Z,10.55
2019-03-18T07:53:21.284Z,8.65
2019-03-18T07:55:48.545Z,7.42
2019-03-18T07:58:16.019Z,8.68
2019-03-18T08:00:43.719Z,7.97
2019-03-18T08:03:11.378Z,7.65
2019-03-18T08:05:38.756Z,7.53
2019-03-18T08:08:06.063Z,8.48
2019-03-18T08:10:33.722Z,8.70
2019-03-18T08:13:01.018Z,9.15
2019-03-18T08:15:28.382Z,7.40
2019-03-18T08:17:55.735Z,7.70
2019-03-18T08:20:23.062Z,5.65
2019-03-18T08:22:50.462Z,7.78
2019-03-18T08:25:17.737Z,6.25
2019-03-18T08:27:45.015Z,7.80
2019-03-18T08:30:15.991Z,6.83
2019-03-18T08:32:43.333Z,5.70
2019-03-18T08:35:10.996Z,5.85
2019-03-18T08:37:38.575Z,5.00
2019-03-18T08:40:07.689Z,6.22
2019-03-18T08:42:34.967Z,5.42
2019-03-18T08:45:02.354Z,3.60
2019-03-18T08:47:29.624Z,5.10
2019-03-18T08:49:56.907Z,5.83
2019-03-18T08:52:24.217Z,6.17
2019-03-18T08:54:51.477Z,4.15
2019-03-18T08:57:18.965Z,5.55
2019-03-18T08:59:46.259Z,5.67
2019-03-18T09:02:13.534Z,5.70
2019-03-18T09:04:41.057Z,5.78
2019-03-18T09:07:08.342Z,5.03
2019-03-18T09:09:35.692Z,4.33
2019-03-18T09:12:03.135Z,5.03
2019-03-18T09:14:30.422Z,5.95
2019-03-18T09:16:57.695Z,5.35
2019-03-18T09:19:25.013Z,6.00
2019-03-18T09:21:52.295Z,3.67
2019-03-18T09:24:19.574Z,4.78
2019-03-18T09:26:46.971Z,4.83
2019-03-18T09:29:14.312Z,4.90
2019-03-18T09:31:41.671Z,4.95
2019-03-18T09:34:09.021Z,3.92
2019-03-18T09:36:36.294Z,4.05
2019-03-18T09:39:04.819Z,3.87
2019-03-18T09:41:32.098Z,4.83
2019-03-18T09:43:59.395Z,3.95
2019-03-18T09:46:26.758Z,4.60
2019-03-18T09:48:54.126Z,3.50
2019-03-18T09:51:21.497Z,4.12
2019-03-18T09:53:48.843Z,4.03
2019-03-18T09:56:16.146Z,5.55
2019-03-18T09:58:43.431Z,3.95
2019-03-18T10:01:10.791Z,4.30
2019-03-18T10:03:38.069Z,4.70
2019-03-18T10:06:05.358Z,3.50
2019-03-18T10:08:32.653Z,5.35
2019-03-18T10:10:59.940Z,3.98
2019-03-18T10:13:27.228Z,3.58
2019-03-18T10:15:54.606Z,3.15
2019-03-18T10:18:21.882Z,6.10
2019-03-18T10:20:49.171Z,5.10
2019-03-18T10:23:16.665Z,3.72
2019-03-18T10:25:44.022Z,5.60
2019-03-18T10:28:11.327Z,4.15
2019-03-18T10:30:38.608Z,3.50
2019-03-18T10:33:05.963Z,4.10
2019-03-18T10:35:33.430Z,4.05
2019-03-18T10:38:00.772Z,5.10
2019-03-18T10:40:28.062Z,5.10
2019-03-18T10:42:55.444Z,3.65
2019-03-18T10:45:25.705Z,4.87
2019-03-18T10:47:54.593Z,3.77
2019-03-18T10:50:20.812Z,4.72
2019-03-18T10:52:48.180Z,4.95
2019-03-18T10:55:15.567Z,4.35
2019-03-18T10:57:42.961Z,4.00
2019-03-18T11:00:12.248Z,4.47
2019-03-18T11:02:39.608Z,3.62
2019-03-18T11:05:08.170Z,4.72
2019-03-18T11:07:35.921Z,5.85
2019-03-18T11:10:04.397Z,4.60
2019-03-18T11:12:31.672Z,5.22
2019-03-18T11:14:59.094Z,4.00
2019-03-18T11:17:26.453Z,4.20
2019-03-18T11:19:58.342Z,4.05
2019-03-18T11:22:22.915Z,4.37
2019-03-18T11:24:50.263Z,3.98
2019-03-18T11:27:17.541Z,3.72
2019-03-18T11:29:44.897Z,3.52
2019-03-18T11:32:12.856Z,3.35
2019-03-18T11:34:40.136Z,4.50
2019-03-18T11:37:07.425Z,4.90
2019-03-18T11:39:34.819Z,4.35
2019-03-18T11:42:02.186Z,3.33
2019-03-18T11:44:29.527Z,4.72
2019-03-18T11:46:56.842Z,7.10
2019-03-18T11:49:24.190Z,3.52
2019-03-18T11:51:51.552Z,4.22
2019-03-18T11:54:18.962Z,4.42
2019-03-18T11:56:46.301Z,4.40
2019-03-18T11:59:13.590Z,4.37
2019-03-18T12:01:40.866Z,4.90
2019-03-18T12:04:08.148Z,3.80
2019-03-18T12:06:35.515Z,3.40
2019-03-18T12:09:02.871Z,6.03
2019-03-18T12:11:30.227Z,4.37
2019-03-18T12:13:57.526Z,4.37
2019-03-18T12:16:24.824Z,5.72
2019-03-18T12:18:52.125Z,4.58
2019-03-18T12:21:19.447Z,3.92
2019-03-18T12:23:46.797Z,3.80
2019-03-18T12:26:16.817Z,5.53
2019-03-18T12:28:44.113Z,3.02
2019-03-18T12:31:11.472Z,3.67
2019-03-18T12:33:38.750Z,4.75
2019-03-18T12:36:06.115Z,3.62
2019-03-18T12:38:33.638Z,5.10
2019-03-18T12:41:00.938Z,5.72
2019-03-18T12:43:28.226Z,6.75
2019-03-18T12:45:55.567Z,4.70
2019-03-18T12:48:22.852Z,4.65
2019-03-18T12:50:56.431Z,4.67
2019-03-18T12:53:19.247Z,4.20
2019-03-18T12:55:46.514Z,5.95
2019-03-18T12:58:14.281Z,4.45
2019-03-18T13:00:41.970Z,5.50
2019-03-18T13:03:09.246Z,4.62
2019-03-18T13:05:36.607Z,4.67
2019-03-18T13:08:03.951Z,5.03
2019-03-18T13:10:31.273Z,4.10
2019-03-18T13:12:58.619Z,4.85
2019-03-18T13:15:25.899Z,5.45
2019-03-18T13:17:53.545Z,5.47
2019-03-18T13:20:21.279Z,4.75
2019-03-18T13:22:48.574Z,3.70
2019-03-18T13:25:15.893Z,4.05
2019-03-18T13:27:43.168Z,4.35
2019-03-18T13:30:20.256Z,5.90
2019-03-18T13:32:47.613Z,4.08
2019-03-18T13:35:15.193Z,4.37
2019-03-18T13:37:42.462Z,5.05
2019-03-18T13:40:11.013Z,4.80
2019-03-18T13:42:38.292Z,4.80
2019-03-18T13:45:07.258Z,5.58
2019-03-18T13:47:34.588Z,4.28
2019-03-18T13:50:01.962Z,4.10
2019-03-18T13:52:29.308Z,6.05
2019-03-18T13:54:56.593Z,5.20
2019-03-18T13:57:23.909Z,4.33
2019-03-18T13:59:51.268Z,4.37
2019-03-18T14:02:18.557Z,3.52
2019-03-18T14:04:46.033Z,5.53
2019-03-18T14:07:13.388Z,5.60
2019-03-18T14:09:40.661Z,5.60
2019-03-18T14:12:07.948Z,3.92
2019-03-18T14:14:35.303Z,3.35
2019-03-18T14:17:03.021Z,3.87
2019-03-18T14:19:30.350Z,4.05
2019-03-18T14:21:57.700Z,4.42
2019-03-18T14:24:25.058Z,4.33
2019-03-18T14:26:52.422Z,4.37
2019-03-18T14:29:19.699Z,4.72
2019-03-18T14:31:46.990Z,3.72
2019-03-18T14:34:14.274Z,4.22
2019-03-18T14:36:41.613Z,4.60
2019-03-18T14:39:08.949Z,3.80
2019-03-18T14:41:36.321Z,3.67
2019-03-18T14:44:04.055Z,4.90
2019-03-18T14:46:31.453Z,3.95
2019-03-18T14:48:58.823Z,3.65
2019-03-18T14:51:26.155Z,3.90
2019-03-18T14:53:53.448Z,6.37
2019-03-18T14:56:20.832Z,3.45
2019-03-18T14:58:48.119Z,5.40
2019-03-18T15:01:15.381Z,4.40
2019-03-18T15:03:42.668Z,4.15
2019-03-18T15:06:09.955Z,5.90
2019-03-18T15:08:37.219Z,3.87
2019-03-18T15:11:04.880Z,3.72
2019-03-18T15:13:32.226Z,3.52
2019-03-18T15:15:59.513Z,3.70
2019-03-18T15:18:26.875Z,6.12
2019-03-18T15:20:54.241Z,4.05
2019-03-18T15:23:21.589Z,5.17
2019-03-18T15:25:48.950Z,4.28
2019-03-18T15:28:16.547Z,3.60
2019-03-18T15:30:44.004Z,4.95
2019-03-18T15:33:11.833Z,5.03
2019-03-18T15:35:39.194Z,3.17
2019-03-18T15:38:06.540Z,4.40
2019-03-18T15:40:33.838Z,3.27
2019-03-18T15:43:01.197Z,3.65
2019-03-18T15:45:28.548Z,3.65
2019-03-18T15:47:55.868Z,3.98
2019-03-18T15:50:26.384Z,4.50
2019-03-18T15:52:53.742Z,4.70
2019-03-18T15:55:23.777Z,3.87
2019-03-18T15:57:50.140Z,3.52
2019-03-18T16:00:20.790Z,2.80
2019-03-18T16:02:48.334Z,3.30
2019-03-18T16:05:15.609Z,3.17
2019-03-18T16:07:43.102Z,3.22
2019-03-18T16:10:14.034Z,4.03
2019-03-18T16:12:41.315Z,4.25
2019-03-18T16:15:09.883Z,2.98
2019-03-18T16:17:37.616Z,5.17
2019-03-18T16:20:06.420Z,3.72
2019-03-18T16:22:33.716Z,4.00
2019-03-18T16:25:01.027Z,3.83
2019-03-18T16:27:28.371Z,4.00
2019-03-18T16:29:57.445Z,3.00
2019-03-18T16:32:24.806Z,2.85
2019-03-18T16:34:52.120Z,3.37
2019-03-18T16:37:19.396Z,3.70
2019-03-18T16:39:46.693Z,3.47
2019-03-18T16:42:14.048Z,3.77
2019-03-18T16:44:41.336Z,4.72
2019-03-18T16:47:08.750Z,3.05
2019-03-18T16:49:36.027Z,4.70
2019-03-18T16:52:03.323Z,4.78
2019-03-18T16:54:30.600Z,3.90
2019-03-18T16:56:57.890Z,4.33
2019-03-18T16:59:25.413Z,3.52
2019-03-18T17:01:52.766Z,3.77
2019-03-18T17:04:20.218Z,4.28
2019-03-18T17:06:47.565Z,4.90
2019-03-18T17:09:14.841Z,6.53
2019-03-18T17:11:42.122Z,5.47
2019-03-18T17:14:09.402Z,5.65
2019-03-18T17:16:36.715Z,6.00
2019-03-18T17:19:04.064Z,6.15
2019-03-18T17:21:31.343Z,10.68
2019-03-18T17:23:58.634Z,8.43
2019-03-18T17:26:25.936Z,6.67
2019-03-18T17:28:53.269Z,7.78
2019-03-18T17:31:20.548Z,8.85
2019-03-18T17:33:47.858Z,10.55
2019-03-18T17:36:15.225Z,6.85
2019-03-18T17:38:42.507Z,7.87
2019-03-18T17:41:09.833Z,6.95
2019-03-18T17:43:37.124Z,7.00
2019-03-18T17:46:04.491Z,10.05
2019-03-18T17:48:31.781Z,9.20
2019-03-18T17:50:59.142Z,9.60
2019-03-18T17:53:26.542Z,6.92
2019-03-18T17:55:53.835Z,8.05
2019-03-18T17:58:21.243Z,7.12
2019-03-18T18:00:50.304Z,9.13
2019-03-18T18:03:17.625Z,6.97
2019-03-18T18:05:44.931Z,9.45
2019-03-18T18:08:12.255Z,7.50
2019-03-18T18:10:39.839Z,8.35
2019-03-18T18:13:07.189Z,8.50
2019-03-18T18:15:34.459Z,8.28
2019-03-18T18:18:01.927Z,10.50
2019-03-18T18:20:29.387Z,9.35
2019-03-18T18:22:56.666Z,11.73
2019-03-18T18:25:23.947Z,10.00
2019-03-18T18:27:51.221Z,9.30
2019-03-18T18:30:19.089Z,9.40
2019-03-18T18:32:46.363Z,8.40
2019-03-18T18:35:13.725Z,7.80
2019-03-18T18:37:41.156Z,7.83
2019-03-18T18:40:10.189Z,8.15
2019-03-18T18:42:37.469Z,7.80
2019-03-18T18:45:06.032Z,9.45
2019-03-18T18:47:33.392Z,8.90
2019-03-18T18:50:00.756Z,7.22
2019-03-18T18:52:28.172Z,11.38
2019-03-18T18:54:55.490Z,7.25
2019-03-18T18:57:22.793Z,8.35
2019-03-18T18:59:50.081Z,7.90
2019-03-18T19:02:17.370Z,6.50
2019-03-18T19:04:44.755Z,7.25
2019-03-18T19:07:12.044Z,8.00
2019-03-18T19:09:39.446Z,7.65
2019-03-18T19:12:06.841Z,7.87
2019-03-18T19:14:34.116Z,7.87
2019-03-18T19:17:01.388Z,7.22
2019-03-18T19:19:28.671Z,7.22
2019-03-18T19:21:55.982Z,9.28
2019-03-18T19:24:23.340Z,8.73
2019-03-18T19:26:50.638Z,8.83
2019-03-18T19:29:18.230Z,8.10
2019-03-18T19:31:45.518Z,10.60
2019-03-18T19:34:12.803Z,9.78
2019-03-18T19:36:40.090Z,9.68
2019-03-18T19:39:07.404Z,8.98
2019-03-18T19:41:35.438Z,9.00
2019-03-18T19:44:02.747Z,6.60
2019-03-18T19:46:30.083Z,7.53
2019-03-18T19:48:57.387Z,7.85
2019-03-18T19:51:24.688Z,9.25
2019-03-18T19:53:52.036Z,9.05
2019-03-18T19:56:20.962Z,8.35
2019-03-18T19:58:48.309Z,8.23
2019-03-18T20:01:15.598Z,7.65
2019-03-18T20:03:42.902Z,8.90
2019-03-18T20:06:10.243Z,8.15
2019-03-18T20:08:37.603Z,10.72
2019-03-18T20:11:04.898Z,9.08
2019-03-18T20:13:32.181Z,9.50
2019-03-18T20:15:59.567Z,8.58
2019-03-18T20:18:26.863Z,9.33
2019-03-18T20:20:56.779Z,11.88
2019-03-18T20:23:23.258Z,12.45
2019-03-18T20:25:50.631Z,13.80
2019-03-18T20:28:17.978Z,11.22
2019-03-18T20:30:45.263Z,12.53
2019-03-18T20:33:12.596Z,14.53
2019-03-18T20:35:39.964Z,13.50
2019-03-18T20:38:07.235Z,18.00
2019-03-18T20:40:34.548Z,14.53
2019-03-18T20:43:03.370Z,16.48
2019-03-18T20:45:30.665Z,16.62
2019-03-18T20:47:57.956Z,19.80
2019-03-18T20:50:25.555Z,17.60
2019-03-18T20:52:53.195Z,18.23
2019-03-18T20:55:20.891Z,17.50
2019-03-18T20:57:48.207Z,18.02
2019-03-18T21:00:24.816Z,17.77
2019-03-18T21:02:52.123Z,16.50
2019-03-18T21:05:19.511Z,16.32
2019-03-18T21:07:47.348Z,18.15
2019-03-18T21:10:19.143Z,15.75
2019-03-18T21:12:46.429Z,15.13
2019-03-18T21:15:14.482Z,16.67
2019-03-18T21:17:41.782Z,15.70
2019-03-18T21:20:22.316Z,16.37
2019-03-18T21:22:49.598Z,16.05
2019-03-18T21:25:17.931Z,16.42
2019-03-18T21:27:45.212Z,16.20
2019-03-18T21:30:14.071Z,16.20
2019-03-18T21:32:41.410Z,16.80
2019-03-18T21:35:09.482Z,15.95
2019-03-18T21:37:36.767Z,15.85
2019-03-18T21:40:08.430Z,15.10
2019-03-18T21:42:35.712Z,15.28
2019-03-18T21:45:04.048Z,17.45
2019-03-18T21:47:31.421Z,15.68
2019-03-18T21:49:58.712Z,16.15
2019-03-18T21:52:26.141Z,15.35
2019-03-18T21:54:53.700Z,14.98
2019-03-18T21:57:21.151Z,14.58
2019-03-18T21:59:48.910Z,15.53
2019-03-18T22:02:16.254Z,15.75
2019-03-18T22:04:43.549Z,14.38
2019-03-18T22:07:10.836Z,14.60
2019-03-18T22:09:38.212Z,15.08
2019-03-18T22:12:05.536Z,13.58
2019-03-18T22:14:32.882Z,16.20
2019-03-18T22:17:00.194Z,13.78
2019-03-18T22:19:27.492Z,14.05
2019-03-18T22:21:54.838Z,14.33
2019-03-18T22:24:22.147Z,13.13
2019-03-18T22:26:50.102Z,12.50
2019-03-18T22:29:17.585Z,15.13
2019-03-18T22:31:44.913Z,11.97
2019-03-18T22:34:12.337Z,13.08
2019-03-18T22:36:40.204Z,14.18
2019-03-18T22:39:08.130Z,12.82
2019-03-18T22:41:35.419Z,11.90
2019-03-18T22:44:02.778Z,13.90
2019-03-18T22:46:30.719Z,13.50
2019-03-18T22:48:58.059Z,13.65
2019-03-18T22:51:25.724Z,13.22
2019-03-18T22:53:53.092Z,14.07
2019-03-18T22:56:20.627Z,12.30
2019-03-18T22:58:47.957Z,12.80
2019-03-18T23:01:16.808Z,11.28
2019-03-18T23:03:44.332Z,13.20
2019-03-18T23:06:11.613Z,12.55
2019-03-18T23:08:38.909Z,11.68
2019-03-18T23:11:06.304Z,11.65
2019-03-18T23:13:33.622Z,11.15
2019-03-18T23:16:00.899Z,12.40
2019-03-18T23:18:28.377Z,11.25
2019-03-18T23:20:55.660Z,12.63
2019-03-18T23:23:22.953Z,13.75
2019-03-18T23:25:50.314Z,11.95
2019-03-18T23:28:17.601Z,12.33
2019-03-18T23:30:44.963Z,13.98
2019-03-18T23:33:12.298Z,12.00
2019-03-18T23:35:39.619Z,10.90
2019-03-18T23:38:06.914Z,12.40
2019-03-18T23:40:34.470Z,12.20
2019-03-18T23:43:02.029Z,12.65
2019-03-18T23:45:29.353Z,12.15
2019-03-18T23:47:56.687Z,10.68
2019-03-18T23:50:24.004Z,11.12
2019-03-18T23:52:51.322Z,11.97
2019-03-18T23:55:19.947Z,10.53
2019-03-18T23:57:47.542Z,13.15
